Flight Track Log - Related Links

Times and Time Zones

All times are in EDT time to prevent confusion due to time zone crossing. See the FLG3933 flight status page for this flight to view local times or setup timezone preferences in your user account.

Time Position Orientation Groundspeed Altitude Reporting Facility
EDT Latitude Longitude Course Direction KTS MPH feet Rate Location/Type
Wed 11:10:28 AM 44.8833 -93.1833 101° East 158 182 1,800  Level Minneapolis TRACON
Wed 11:11:09 AM 44.8767 -93.1342 101° East 184 212 3,000 1,981 Climbing Minneapolis Center
Wed 11:12:11 AM 44.9267 -93.0736 41° Northeast 258 297 5,200 2,468 Climbing Minneapolis Center
Wed 11:13:13 AM 45.0025 -93.0353 20° North 288 331 8,100 2,758 Climbing Minneapolis Center
Wed 11:14:15 AM 45.0706 -92.9614 37° Northeast 324 373 10,900 2,323 Climbing Minneapolis Center
Wed 11:15:17 AM 45.1111 -92.8433 64° Northeast 333 383 12,900 1,355 Climbing Minneapolis Center
Wed 11:16:19 AM 45.1594 -92.7033 64° Northeast 394 453 13,700 774 Climbing Minneapolis Center
Wed 11:17:21 AM 45.1911 -92.5414 74° East 430 495 14,500 1,403 Climbing Minneapolis Center
Wed 11:18:23 AM 45.2164 -92.3425 80° East 425 489 16,600 1,839 Climbing Minneapolis Center
Wed 11:19:25 AM 45.2336 -92.1783 81° East 419 482 18,300 1,742 Climbing Minneapolis Center
Wed 11:20:27 AM 45.2400 -92.0183 87° East 416 479 20,200 1,839 Climbing Minneapolis Center
Wed 11:21:29 AM 45.2150 -91.8625 103° East 406 467 22,100 1,355 Climbing Minneapolis Center
Wed 11:22:31 AM 45.1833 -91.7086 106° East 404 465 23,000 435 Climbing Minneapolis Center
Wed 11:23:33 AM 45.1531 -91.5419 104° East 423 487 23,000  Level Minneapolis Center
Wed 11:24:35 AM 45.1156 -91.3353 104° East 445 512 23,000  Level Minneapolis Center
Wed 11:25:37 AM 45.0831 -91.1622 105° East 452 520 23,000  Level Minneapolis Center
Wed 11:26:39 AM 45.0525 -90.9900 104° East 453 521 23,000  Level Minneapolis Center
Wed 11:27:41 AM 45.0222 -90.8286 105° East 446 513 23,000  Level Minneapolis Center
Wed 11:28:43 AM 44.9914 -90.6642 105° East 436 502 23,000  Level Minneapolis Center
Wed 11:29:45 AM 44.9550 -90.4672 105° East 433 498 23,000  Level Minneapolis Center
Wed 11:30:47 AM 44.9233 -90.3044 105° East 431 496 23,000  Level Minneapolis Center
Wed 11:31:49 AM 44.8925 -90.1425 105° East 430 495 23,000  Level Minneapolis Center
Wed 11:32:51 AM 44.8614 -89.9814 105° East 427 491 23,000  Level Minneapolis Center
Wed 11:33:53 AM 44.8294 -89.8211 106° East 427 491 23,000  Level Minneapolis Center
Wed 11:34:55 AM 44.7933 -89.6300 105° East 429 494 23,000 -145 Level Minneapolis Center
Wed 11:35:57 AM 44.7608 -89.4703 106° East 426 490 22,700 -629 Descending Minneapolis Center
Wed 11:36:59 AM 44.7297 -89.3117 105° East 424 488 21,700 -2,049 Descending Minneapolis Center
Wed 11:38:00 AM 44.6961 -89.1469 106° East 409 471 18,500 -2,683 Descending Minneapolis Center
Wed 11:39:02 AM 44.6692 -89.0114 106° East 397 457 16,200 -2,081 Descending Minneapolis Center
Wed 11:40:04 AM 44.6414 -88.8778 106° East 366 421 14,200 -1,935 Descending Minneapolis Center
Wed 11:41:06 AM 44.6169 -88.7544 106° East 341 392 12,200 -2,129 Descending Minneapolis Center
Wed 11:42:08 AM 44.6147 -88.6142 91° East 312 359 9,800 -2,081 Descending Minneapolis Center
Wed 11:43:10 AM 44.6219 -88.4981 85° East 301 346 7,900 -1,742 Descending Minneapolis Center
Wed 11:44:12 AM 44.6264 -88.3886 87° East 289 333 6,200 -1,645 Descending Minneapolis Center
Wed 11:45:14 AM 44.6300 -88.2856 87° East 273 314 4,500 -1,500 Descending Minneapolis Center
Wed 11:46:16 AM 44.6336 -88.1858 87° East 262 302 3,100 -726 Descending Minneapolis Center
Wed 11:47:18 AM 44.5953 -88.1431 142° Southeast 204 235 3,000 -488 Descending Minneapolis Center
Wed 11:48:19 AM 44.5450 -88.1306 170° South 171 197 2,100 -885 Descending Minneapolis Center
Wed 11:50:00 AM 44.4833 -88.1167 173° South  Level FlightAware Approximate
Wed 11:57:00 AM 44.4846 -88.1297 173° South  Level Estimated
Wed 11:58:00 AM 44.4846 -88.1297 173° South  Level Estimated

Login

Don't have an account? Register now (free) for customized features, flight alerts, and more!